sensor_id;sensor_type;location;lat;lon;timestamp;temperature;humidity
2363;DHT22;64265;51.664;7.626;2023-02-15T00:00:05;20.30;70.00
2363;DHT22;64265;51.664;7.626;2023-02-15T00:02:33;20.30;69.80
2363;DHT22;64265;51.664;7.626;2023-02-15T00:05:00;20.30;69.80
2363;DHT22;64265;51.664;7.626;2023-02-15T00:07:27;20.30;69.80
2363;DHT22;64265;51.664;7.626;2023-02-15T00:09:53;20.30;69.80
2363;DHT22;64265;51.664;7.626;2023-02-15T00:12:20;20.30;69.80
2363;DHT22;64265;51.664;7.626;2023-02-15T00:14:48;20.30;69.80
2363;DHT22;64265;51.664;7.626;2023-02-15T00:17:15;20.30;69.80
2363;DHT22;64265;51.664;7.626;2023-02-15T00:19:41;20.20;69.70
2363;DHT22;64265;51.664;7.626;2023-02-15T00:22:08;20.30;69.80
2363;DHT22;64265;51.664;7.626;2023-02-15T00:24:35;20.20;69.70
2363;DHT22;64265;51.664;7.626;2023-02-15T00:27:02;20.30;69.80
2363;DHT22;64265;51.664;7.626;2023-02-15T00:29:29;20.30;69.80
2363;DHT22;64265;51.664;7.626;2023-02-15T00:31:57;20.20;69.80
2363;DHT22;64265;51.664;7.626;2023-02-15T00:34:26;20.30;70.70
2363;DHT22;64265;51.664;7.626;2023-02-15T00:36:53;20.30;69.90
2363;DHT22;64265;51.664;7.626;2023-02-15T00:39:19;20.30;69.90
2363;DHT22;64265;51.664;7.626;2023-02-15T00:41:46;20.30;70.00
2363;DHT22;64265;51.664;7.626;2023-02-15T00:44:14;20.30;70.00
2363;DHT22;64265;51.664;7.626;2023-02-15T00:46:40;20.30;70.00
2363;DHT22;64265;51.664;7.626;2023-02-15T00:49:09;20.30;70.10
2363;DHT22;64265;51.664;7.626;2023-02-15T00:51:36;20.30;70.00
2363;DHT22;64265;51.664;7.626;2023-02-15T00:54:03;20.30;70.10
2363;DHT22;64265;51.664;7.626;2023-02-15T00:56:29;20.30;70.20
2363;DHT22;64265;51.664;7.626;2023-02-15T00:58:56;20.20;70.30
2363;DHT22;64265;51.664;7.626;2023-02-15T01:01:23;20.20;70.60
2363;DHT22;64265;51.664;7.626;2023-02-15T01:03:51;20.20;70.50
2363;DHT22;64265;51.664;7.626;2023-02-15T01:06:19;20.20;70.40
2363;DHT22;64265;51.664;7.626;2023-02-15T01:08:46;20.20;70.40
2363;DHT22;64265;51.664;7.626;2023-02-15T01:11:16;20.20;70.50
2363;DHT22;64265;51.664;7.626;2023-02-15T01:13:48;20.20;70.40
2363;DHT22;64265;51.664;7.626;2023-02-15T01:16:15;20.20;70.40
2363;DHT22;64265;51.664;7.626;2023-02-15T01:18:41;20.20;70.40
2363;DHT22;64265;51.664;7.626;2023-02-15T01:21:10;20.20;70.40
2363;DHT22;64265;51.664;7.626;2023-02-15T01:23:40;20.20;70.40
2363;DHT22;64265;51.664;7.626;2023-02-15T01:26:07;20.20;70.40
2363;DHT22;64265;51.664;7.626;2023-02-15T01:28:34;20.20;70.40
2363;DHT22;64265;51.664;7.626;2023-02-15T01:31:05;20.20;70.40
2363;DHT22;64265;51.664;7.626;2023-02-15T01:33:32;20.10;70.30
2363;DHT22;64265;51.664;7.626;2023-02-15T01:35:59;20.10;70.30
2363;DHT22;64265;51.664;7.626;2023-02-15T01:38:25;20.20;70.40
2363;DHT22;64265;51.664;7.626;2023-02-15T01:40:54;20.20;70.40
2363;DHT22;64265;51.664;7.626;2023-02-15T01:43:43;20.10;70.30
2363;DHT22;64265;51.664;7.626;2023-02-15T01:46:11;20.10;70.30
2363;DHT22;64265;51.664;7.626;2023-02-15T01:48:41;20.10;70.30
2363;DHT22;64265;51.664;7.626;2023-02-15T01:51:09;20.10;70.30
2363;DHT22;64265;51.664;7.626;2023-02-15T01:53:40;20.10;70.30
2363;DHT22;64265;51.664;7.626;2023-02-15T01:56:11;20.10;70.30
2363;DHT22;64265;51.664;7.626;2023-02-15T01:58:40;20.10;70.30
2363;DHT22;64265;51.664;7.626;2023-02-15T02:01:08;20.10;70.30
2363;DHT22;64265;51.664;7.626;2023-02-15T02:03:41;20.10;70.30
2363;DHT22;64265;51.664;7.626;2023-02-15T02:06:09;20.10;70.30
2363;DHT22;64265;51.664;7.626;2023-02-15T02:08:37;20.10;70.30
2363;DHT22;64265;51.664;7.626;2023-02-15T02:11:10;20.10;70.30
2363;DHT22;64265;51.664;7.626;2023-02-15T02:13:38;20.10;70.30
2363;DHT22;64265;51.664;7.626;2023-02-15T02:16:09;20.10;70.30
2363;DHT22;64265;51.664;7.626;2023-02-15T02:18:44;20.10;70.30
2363;DHT22;64265;51.664;7.626;2023-02-15T02:21:41;20.10;70.30
2363;DHT22;64265;51.664;7.626;2023-02-15T02:24:40;20.10;70.30
2363;DHT22;64265;51.664;7.626;2023-02-15T02:27:28;20.10;70.30
2363;DHT22;64265;51.664;7.626;2023-02-15T02:36:15;20.10;70.30
2363;DHT22;64265;51.664;7.626;2023-02-15T02:39:00;20.10;70.30
2363;DHT22;64265;51.664;7.626;2023-02-15T02:41:35;20.10;70.20
2363;DHT22;64265;51.664;7.626;2023-02-15T02:44:12;20.10;70.20
2363;DHT22;64265;51.664;7.626;2023-02-15T02:46:47;20.10;70.20
2363;DHT22;64265;51.664;7.626;2023-02-15T02:49:15;20.10;70.20
2363;DHT22;64265;51.664;7.626;2023-02-15T02:51:43;20.10;70.20
2363;DHT22;64265;51.664;7.626;2023-02-15T02:54:09;20.10;70.20
2363;DHT22;64265;51.664;7.626;2023-02-15T02:56:38;20.10;70.20
2363;DHT22;64265;51.664;7.626;2023-02-15T02:59:11;20.10;70.10
2363;DHT22;64265;51.664;7.626;2023-02-15T03:01:41;20.10;70.10
2363;DHT22;64265;51.664;7.626;2023-02-15T03:04:11;20.10;70.20
2363;DHT22;64265;51.664;7.626;2023-02-15T03:06:44;20.10;70.10
2363;DHT22;64265;51.664;7.626;2023-02-15T03:09:17;20.10;70.10
2363;DHT22;64265;51.664;7.626;2023-02-15T03:11:45;20.10;70.10
2363;DHT22;64265;51.664;7.626;2023-02-15T03:14:14;20.10;70.10
2363;DHT22;64265;51.664;7.626;2023-02-15T03:16:42;20.10;70.10
2363;DHT22;64265;51.664;7.626;2023-02-15T03:19:13;20.10;70.10
2363;DHT22;64265;51.664;7.626;2023-02-15T03:21:45;20.00;70.00
2363;DHT22;64265;51.664;7.626;2023-02-15T03:24:24;20.00;70.90
2363;DHT22;64265;51.664;7.626;2023-02-15T03:26:53;20.00;70.00
2363;DHT22;64265;51.664;7.626;2023-02-15T03:29:23;20.00;70.00
2363;DHT22;64265;51.664;7.626;2023-02-15T03:31:57;20.00;70.00
2363;DHT22;64265;51.664;7.626;2023-02-15T03:34:25;20.00;70.00
2363;DHT22;64265;51.664;7.626;2023-02-15T03:36:58;20.00;70.00
2363;DHT22;64265;51.664;7.626;2023-02-15T03:39:30;20.00;70.00
2363;DHT22;64265;51.664;7.626;2023-02-15T03:42:03;20.00;69.90
2363;DHT22;64265;51.664;7.626;2023-02-15T03:44:39;20.00;70.00
2363;DHT22;64265;51.664;7.626;2023-02-15T03:47:12;20.00;70.00
2363;DHT22;64265;51.664;7.626;2023-02-15T03:49:43;20.00;69.90
2363;DHT22;64265;51.664;7.626;2023-02-15T03:52:13;20.00;69.90
2363;DHT22;64265;51.664;7.626;2023-02-15T03:54:41;20.00;69.90
2363;DHT22;64265;51.664;7.626;2023-02-15T03:57:11;20.00;69.90
2363;DHT22;64265;51.664;7.626;2023-02-15T03:59:56;20.00;69.90
2363;DHT22;64265;51.664;7.626;2023-02-15T04:02:48;20.00;69.90
2363;DHT22;64265;51.664;7.626;2023-02-15T04:05:18;20.00;69.90
2363;DHT22;64265;51.664;7.626;2023-02-15T04:07:47;20.00;69.90
2363;DHT22;64265;51.664;7.626;2023-02-15T04:10:13;20.00;69.90
2363;DHT22;64265;51.664;7.626;2023-02-15T04:12:58;20.00;69.90
2363;DHT22;64265;51.664;7.626;2023-02-15T04:15:24;20.00;69.90
2363;DHT22;64265;51.664;7.626;2023-02-15T04:18:09;20.00;69.90
2363;DHT22;64265;51.664;7.626;2023-02-15T04:20:35;20.00;69.90
2363;DHT22;64265;51.664;7.626;2023-02-15T04:23:21;20.00;69.90
2363;DHT22;64265;51.664;7.626;2023-02-15T04:26:05;20.00;69.90
2363;DHT22;64265;51.664;7.626;2023-02-15T04:28:32;20.00;69.90
2363;DHT22;64265;51.664;7.626;2023-02-15T04:30:58;20.00;69.90
2363;DHT22;64265;51.664;7.626;2023-02-15T04:33:25;20.00;69.90
2363;DHT22;64265;51.664;7.626;2023-02-15T04:35:52;20.00;69.90
2363;DHT22;64265;51.664;7.626;2023-02-15T04:38:19;20.00;69.90
2363;DHT22;64265;51.664;7.626;2023-02-15T04:40:50;20.00;69.90
2363;DHT22;64265;51.664;7.626;2023-02-15T04:43:18;20.00;69.90
2363;DHT22;64265;51.664;7.626;2023-02-15T04:45:48;20.00;69.90
2363;DHT22;64265;51.664;7.626;2023-02-15T04:48:15;20.00;69.90
2363;DHT22;64265;51.664;7.626;2023-02-15T04:50:42;20.00;69.90
2363;DHT22;64265;51.664;7.626;2023-02-15T04:53:09;20.00;69.90
2363;DHT22;64265;51.664;7.626;2023-02-15T04:55:35;20.00;69.90
2363;DHT22;64265;51.664;7.626;2023-02-15T04:58:03;20.00;69.90
2363;DHT22;64265;51.664;7.626;2023-02-15T05:00:30;20.00;69.90
2363;DHT22;64265;51.664;7.626;2023-02-15T05:02:56;20.00;69.90
2363;DHT22;64265;51.664;7.626;2023-02-15T05:05:23;20.00;69.90
2363;DHT22;64265;51.664;7.626;2023-02-15T05:07:50;20.00;69.90
2363;DHT22;64265;51.664;7.626;2023-02-15T05:10:17;20.00;69.90
2363;DHT22;64265;51.664;7.626;2023-02-15T05:12:43;20.00;69.90
2363;DHT22;64265;51.664;7.626;2023-02-15T05:15:12;20.00;69.90
2363;DHT22;64265;51.664;7.626;2023-02-15T05:17:39;20.00;69.90
2363;DHT22;64265;51.664;7.626;2023-02-15T05:20:06;20.00;69.80
2363;DHT22;64265;51.664;7.626;2023-02-15T05:22:33;20.00;69.90
2363;DHT22;64265;51.664;7.626;2023-02-15T05:25:00;20.00;69.80
2363;DHT22;64265;51.664;7.626;2023-02-15T05:27:44;20.00;69.80
2363;DHT22;64265;51.664;7.626;2023-02-15T05:30:29;20.00;69.80
2363;DHT22;64265;51.664;7.626;2023-02-15T05:32:56;20.00;69.80
2363;DHT22;64265;51.664;7.626;2023-02-15T05:35:22;20.00;69.80
2363;DHT22;64265;51.664;7.626;2023-02-15T05:37:49;20.00;69.80
2363;DHT22;64265;51.664;7.626;2023-02-15T05:40:16;20.00;69.70
2363;DHT22;64265;51.664;7.626;2023-02-15T05:42:43;20.00;69.60
2363;DHT22;64265;51.664;7.626;2023-02-15T05:45:09;20.00;69.70
2363;DHT22;64265;51.664;7.626;2023-02-15T05:47:37;20.00;69.60
2363;DHT22;64265;51.664;7.626;2023-02-15T05:50:05;20.00;69.60
2363;DHT22;64265;51.664;7.626;2023-02-15T05:52:32;20.00;69.60
2363;DHT22;64265;51.664;7.626;2023-02-15T05:54:59;20.00;69.60
2363;DHT22;64265;51.664;7.626;2023-02-15T05:57:27;20.00;69.60
2363;DHT22;64265;51.664;7.626;2023-02-15T05:59:54;20.00;69.60
2363;DHT22;64265;51.664;7.626;2023-02-15T06:02:20;20.00;69.60
2363;DHT22;64265;51.664;7.626;2023-02-15T06:04:48;20.00;69.60
2363;DHT22;64265;51.664;7.626;2023-02-15T06:07:15;20.00;69.60
2363;DHT22;64265;51.664;7.626;2023-02-15T06:09:42;20.00;69.60
2363;DHT22;64265;51.664;7.626;2023-02-15T06:12:08;20.00;69.60
2363;DHT22;64265;51.664;7.626;2023-02-15T06:14:35;20.00;69.60
2363;DHT22;64265;51.664;7.626;2023-02-15T06:17:02;20.00;69.60
2363;DHT22;64265;51.664;7.626;2023-02-15T06:19:28;20.10;69.70
2363;DHT22;64265;51.664;7.626;2023-02-15T06:21:56;20.00;69.60
2363;DHT22;64265;51.664;7.626;2023-02-15T06:24:23;20.10;69.70
2363;DHT22;64265;51.664;7.626;2023-02-15T06:26:50;20.10;69.70
2363;DHT22;64265;51.664;7.626;2023-02-15T06:29:16;20.10;69.70
2363;DHT22;64265;51.664;7.626;2023-02-15T06:31:43;20.10;69.70
2363;DHT22;64265;51.664;7.626;2023-02-15T06:34:09;20.10;69.60
2363;DHT22;64265;51.664;7.626;2023-02-15T06:36:36;20.10;69.60
2363;DHT22;64265;51.664;7.626;2023-02-15T06:39:04;20.10;69.60
2363;DHT22;64265;51.664;7.626;2023-02-15T06:41:31;20.10;69.60
2363;DHT22;64265;51.664;7.626;2023-02-15T06:43:58;20.10;69.70
2363;DHT22;64265;51.664;7.626;2023-02-15T06:46:25;20.10;69.70
2363;DHT22;64265;51.664;7.626;2023-02-15T06:48:52;20.10;69.70
2363;DHT22;64265;51.664;7.626;2023-02-15T06:51:19;20.00;69.60
2363;DHT22;64265;51.664;7.626;2023-02-15T06:53:45;20.00;69.60
2363;DHT22;64265;51.664;7.626;2023-02-15T06:56:13;20.00;69.60
2363;DHT22;64265;51.664;7.626;2023-02-15T06:58:40;20.00;69.60
2363;DHT22;64265;51.664;7.626;2023-02-15T07:01:08;20.00;69.60
2363;DHT22;64265;51.664;7.626;2023-02-15T07:03:35;20.00;69.60
2363;DHT22;64265;51.664;7.626;2023-02-15T07:06:03;20.00;69.60
2363;DHT22;64265;51.664;7.626;2023-02-15T07:08:33;20.00;69.60
2363;DHT22;64265;51.664;7.626;2023-02-15T07:11:01;20.00;69.60
2363;DHT22;64265;51.664;7.626;2023-02-15T07:13:43;20.00;69.80
2363;DHT22;64265;51.664;7.626;2023-02-15T07:16:10;20.00;69.90
2363;DHT22;64265;51.664;7.626;2023-02-15T07:18:37;20.10;69.90
2363;DHT22;64265;51.664;7.626;2023-02-15T07:21:04;20.10;69.80
2363;DHT22;64265;51.664;7.626;2023-02-15T07:23:33;20.10;69.80
2363;DHT22;64265;51.664;7.626;2023-02-15T07:26:00;20.10;69.70
2363;DHT22;64265;51.664;7.626;2023-02-15T07:28:27;20.10;69.70
2363;DHT22;64265;51.664;7.626;2023-02-15T07:30:55;20.20;69.80
2363;DHT22;64265;51.664;7.626;2023-02-15T07:33:22;20.20;69.80
2363;DHT22;64265;51.664;7.626;2023-02-15T07:35:50;20.20;69.80
2363;DHT22;64265;51.664;7.626;2023-02-15T07:38:17;20.20;69.90
2363;DHT22;64265;51.664;7.626;2023-02-15T07:40:45;20.20;69.80
2363;DHT22;64265;51.664;7.626;2023-02-15T07:43:12;20.20;69.80
2363;DHT22;64265;51.664;7.626;2023-02-15T07:45:39;20.20;69.90
2363;DHT22;64265;51.664;7.626;2023-02-15T07:48:07;20.20;69.90
2363;DHT22;64265;51.664;7.626;2023-02-15T07:50:34;20.20;69.90
2363;DHT22;64265;51.664;7.626;2023-02-15T07:53:01;20.20;69.90
2363;DHT22;64265;51.664;7.626;2023-02-15T07:55:28;20.20;69.90
2363;DHT22;64265;51.664;7.626;2023-02-15T07:57:55;20.20;69.90
2363;DHT22;64265;51.664;7.626;2023-02-15T08:00:22;20.20;70.00
2363;DHT22;64265;51.664;7.626;2023-02-15T08:02:50;20.10;70.00
2363;DHT22;64265;51.664;7.626;2023-02-15T08:05:40;20.10;70.30
2363;DHT22;64265;51.664;7.626;2023-02-15T08:08:08;20.10;70.90
2363;DHT22;64265;51.664;7.626;2023-02-15T08:10:58;20.10;70.70
2363;DHT22;64265;51.664;7.626;2023-02-15T08:13:43;20.20;70.80
2363;DHT22;64265;51.664;7.626;2023-02-15T08:16:19;20.20;71.00
2363;DHT22;64265;51.664;7.626;2023-02-15T08:18:46;20.10;71.10
2363;DHT22;64265;51.664;7.626;2023-02-15T08:21:14;20.10;71.30
2363;DHT22;64265;51.664;7.626;2023-02-15T08:23:41;20.10;71.70
2363;DHT22;64265;51.664;7.626;2023-02-15T08:26:07;20.10;71.70
2363;DHT22;64265;51.664;7.626;2023-02-15T08:28:34;20.10;71.70
2363;DHT22;64265;51.664;7.626;2023-02-15T08:31:04;20.10;71.80
2363;DHT22;64265;51.664;7.626;2023-02-15T08:33:31;19.70;67.30
2363;DHT22;64265;51.664;7.626;2023-02-15T08:36:02;19.60;67.30
2363;DHT22;64265;51.664;7.626;2023-02-15T08:38:30;19.70;68.50
2363;DHT22;64265;51.664;7.626;2023-02-15T08:40:57;19.90;69.10
2363;DHT22;64265;51.664;7.626;2023-02-15T08:43:24;20.00;69.20
2363;DHT22;64265;51.664;7.626;2023-02-15T08:45:51;20.00;69.20
2363;DHT22;64265;51.664;7.626;2023-02-15T08:48:17;20.10;69.20
2363;DHT22;64265;51.664;7.626;2023-02-15T08:50:44;20.10;69.10
2363;DHT22;64265;51.664;7.626;2023-02-15T08:53:11;20.10;69.00
2363;DHT22;64265;51.664;7.626;2023-02-15T08:55:39;20.20;69.10
2363;DHT22;64265;51.664;7.626;2023-02-15T08:58:06;20.20;69.10
2363;DHT22;64265;51.664;7.626;2023-02-15T09:00:32;20.20;69.00
2363;DHT22;64265;51.664;7.626;2023-02-15T09:02:59;20.20;69.00
2363;DHT22;64265;51.664;7.626;2023-02-15T09:05:26;20.30;69.00
2363;DHT22;64265;51.664;7.626;2023-02-15T09:07:52;20.30;69.00
2363;DHT22;64265;51.664;7.626;2023-02-15T09:10:19;20.30;69.00
2363;DHT22;64265;51.664;7.626;2023-02-15T09:12:47;20.30;69.00
2363;DHT22;64265;51.664;7.626;2023-02-15T09:15:15;20.30;69.80
2363;DHT22;64265;51.664;7.626;2023-02-15T09:17:42;20.30;69.00
2363;DHT22;64265;51.664;7.626;2023-02-15T09:20:09;20.30;69.00
2363;DHT22;64265;51.664;7.626;2023-02-15T09:22:36;20.30;69.00
2363;DHT22;64265;51.664;7.626;2023-02-15T09:25:03;20.30;69.00
2363;DHT22;64265;51.664;7.626;2023-02-15T09:27:29;20.30;69.00
2363;DHT22;64265;51.664;7.626;2023-02-15T09:29:57;20.30;69.00
2363;DHT22;64265;51.664;7.626;2023-02-15T09:32:24;20.30;69.00
2363;DHT22;64265;51.664;7.626;2023-02-15T09:34:51;20.30;69.00
2363;DHT22;64265;51.664;7.626;2023-02-15T09:37:18;20.30;69.00
2363;DHT22;64265;51.664;7.626;2023-02-15T09:39:45;20.30;69.00
2363;DHT22;64265;51.664;7.626;2023-02-15T09:42:42;20.30;69.00
2363;DHT22;64265;51.664;7.626;2023-02-15T09:45:26;20.30;69.10
2363;DHT22;64265;51.664;7.626;2023-02-15T09:48:12;20.30;69.00
2363;DHT22;64265;51.664;7.626;2023-02-15T09:50:49;20.30;69.10
2363;DHT22;64265;51.664;7.626;2023-02-15T09:53:44;20.30;69.00
2363;DHT22;64265;51.664;7.626;2023-02-15T09:56:22;20.30;69.00
2363;DHT22;64265;51.664;7.626;2023-02-15T09:58:58;20.30;69.00
2363;DHT22;64265;51.664;7.626;2023-02-15T10:01:34;20.30;69.10
2363;DHT22;64265;51.664;7.626;2023-02-15T10:04:18;20.30;69.00
2363;DHT22;64265;51.664;7.626;2023-02-15T10:06:52;20.30;69.00
2363;DHT22;64265;51.664;7.626;2023-02-15T10:09:33;20.40;69.00
2363;DHT22;64265;51.664;7.626;2023-02-15T10:12:15;20.40;69.10
2363;DHT22;64265;51.664;7.626;2023-02-15T10:15:03;20.30;69.00
2363;DHT22;64265;51.664;7.626;2023-02-15T10:17:49;20.30;69.10
2363;DHT22;64265;51.664;7.626;2023-02-15T10:20:26;20.20;69.10
2363;DHT22;64265;51.664;7.626;2023-02-15T10:23:08;20.20;69.10
2363;DHT22;64265;51.664;7.626;2023-02-15T10:25:43;20.20;69.80
2363;DHT22;64265;51.664;7.626;2023-02-15T10:28:16;20.30;69.00
2363;DHT22;64265;51.664;7.626;2023-02-15T10:30:47;20.30;69.00
2363;DHT22;64265;51.664;7.626;2023-02-15T10:33:24;20.30;69.00
2363;DHT22;64265;51.664;7.626;2023-02-15T10:36:02;20.40;69.10
2363;DHT22;64265;51.664;7.626;2023-02-15T10:38:37;20.40;69.20
2363;DHT22;64265;51.664;7.626;2023-02-15T10:41:20;20.50;69.30
2363;DHT22;64265;51.664;7.626;2023-02-15T10:44:02;20.50;69.40
2363;DHT22;64265;51.664;7.626;2023-02-15T10:46:46;20.50;69.50
2363;DHT22;64265;51.664;7.626;2023-02-15T10:49:29;20.60;69.50
2363;DHT22;64265;51.664;7.626;2023-02-15T10:52:10;20.60;69.60
2363;DHT22;64265;51.664;7.626;2023-02-15T10:54:46;20.60;69.60
2363;DHT22;64265;51.664;7.626;2023-02-15T10:57:19;20.60;69.70
2363;DHT22;64265;51.664;7.626;2023-02-15T11:00:05;20.60;69.70
2363;DHT22;64265;51.664;7.626;2023-02-15T11:02:44;20.60;69.70
2363;DHT22;64265;51.664;7.626;2023-02-15T11:05:26;20.70;69.90
2363;DHT22;64265;51.664;7.626;2023-02-15T11:08:00;20.70;70.80
2363;DHT22;64265;51.664;7.626;2023-02-15T11:10:33;20.70;70.00
2363;DHT22;64265;51.664;7.626;2023-02-15T11:13:05;20.70;70.00
2363;DHT22;64265;51.664;7.626;2023-02-15T11:15:38;20.70;70.00
2363;DHT22;64265;51.664;7.626;2023-02-15T11:18:11;20.70;70.00
2363;DHT22;64265;51.664;7.626;2023-02-15T11:20:43;20.70;70.10
2363;DHT22;64265;51.664;7.626;2023-02-15T11:23:13;20.70;70.10
2363;DHT22;64265;51.664;7.626;2023-02-15T11:25:43;20.70;70.10
2363;DHT22;64265;51.664;7.626;2023-02-15T11:28:17;20.80;70.30
2363;DHT22;64265;51.664;7.626;2023-02-15T11:30:48;20.80;70.30
2363;DHT22;64265;51.664;7.626;2023-02-15T11:33:19;20.80;70.30
2363;DHT22;64265;51.664;7.626;2023-02-15T11:35:53;20.80;70.30
2363;DHT22;64265;51.664;7.626;2023-02-15T11:38:24;20.80;70.30
2363;DHT22;64265;51.664;7.626;2023-02-15T11:40:57;20.80;70.30
2363;DHT22;64265;51.664;7.626;2023-02-15T11:43:31;20.80;70.30
2363;DHT22;64265;51.664;7.626;2023-02-15T11:45:59;20.80;70.40
2363;DHT22;64265;51.664;7.626;2023-02-15T11:48:26;20.80;70.40
2363;DHT22;64265;51.664;7.626;2023-02-15T11:50:57;20.80;70.40
2363;DHT22;64265;51.664;7.626;2023-02-15T11:53:23;20.80;70.40
2363;DHT22;64265;51.664;7.626;2023-02-15T11:55:53;20.80;70.50
2363;DHT22;64265;51.664;7.626;2023-02-15T11:58:28;20.80;70.50
2363;DHT22;64265;51.664;7.626;2023-02-15T12:01:00;20.80;70.50
2363;DHT22;64265;51.664;7.626;2023-02-15T12:03:39;20.80;70.60
2363;DHT22;64265;51.664;7.626;2023-02-15T12:06:16;20.80;70.60
2363;DHT22;64265;51.664;7.626;2023-02-15T12:08:48;20.80;70.60
2363;DHT22;64265;51.664;7.626;2023-02-15T12:11:20;20.80;70.70
2363;DHT22;64265;51.664;7.626;2023-02-15T12:13:56;20.90;70.80
2363;DHT22;64265;51.664;7.626;2023-02-15T12:16:23;20.90;70.80
2363;DHT22;64265;51.664;7.626;2023-02-15T12:18:53;20.90;70.70
2363;DHT22;64265;51.664;7.626;2023-02-15T12:21:28;20.90;70.70
2363;DHT22;64265;51.664;7.626;2023-02-15T12:23:58;20.90;70.70
2363;DHT22;64265;51.664;7.626;2023-02-15T12:26:28;20.90;70.70
2363;DHT22;64265;51.664;7.626;2023-02-15T12:28:58;20.90;70.60
2363;DHT22;64265;51.664;7.626;2023-02-15T12:31:33;20.90;70.60
2363;DHT22;64265;51.664;7.626;2023-02-15T12:34:03;20.90;70.60
2363;DHT22;64265;51.664;7.626;2023-02-15T12:36:42;20.90;70.60
2363;DHT22;64265;51.664;7.626;2023-02-15T12:39:20;20.90;70.60
2363;DHT22;64265;51.664;7.626;2023-02-15T12:41:58;20.90;70.60
2363;DHT22;64265;51.664;7.626;2023-02-15T12:44:26;20.90;70.60
2363;DHT22;64265;51.664;7.626;2023-02-15T12:46:59;20.90;70.60
2363;DHT22;64265;51.664;7.626;2023-02-15T12:49:26;20.90;70.60
2363;DHT22;64265;51.664;7.626;2023-02-15T12:51:56;20.90;70.60
2363;DHT22;64265;51.664;7.626;2023-02-15T12:54:35;21.00;70.70
2363;DHT22;64265;51.664;7.626;2023-02-15T12:57:22;21.00;70.70
2363;DHT22;64265;51.664;7.626;2023-02-15T12:59:51;21.00;70.70
2363;DHT22;64265;51.664;7.626;2023-02-15T13:02:25;21.00;70.70
2363;DHT22;64265;51.664;7.626;2023-02-15T13:04:53;21.00;70.70
2363;DHT22;64265;51.664;7.626;2023-02-15T13:07:23;21.00;70.70
2363;DHT22;64265;51.664;7.626;2023-02-15T13:09:50;21.00;70.80
2363;DHT22;64265;51.664;7.626;2023-02-15T13:12:20;21.00;70.70
2363;DHT22;64265;51.664;7.626;2023-02-15T13:14:49;21.00;70.70
2363;DHT22;64265;51.664;7.626;2023-02-15T13:17:20;21.00;70.70
2363;DHT22;64265;51.664;7.626;2023-02-15T13:19:51;21.00;70.70
2363;DHT22;64265;51.664;7.626;2023-02-15T13:22:25;21.00;70.70
2363;DHT22;64265;51.664;7.626;2023-02-15T13:24:56;21.00;70.70
2363;DHT22;64265;51.664;7.626;2023-02-15T13:27:26;21.00;70.70
2363;DHT22;64265;51.664;7.626;2023-02-15T13:29:57;21.00;70.90
2363;DHT22;64265;51.664;7.626;2023-02-15T13:32:28;21.00;70.80
2363;DHT22;64265;51.664;7.626;2023-02-15T13:34:58;21.00;70.90
2363;DHT22;64265;51.664;7.626;2023-02-15T13:37:38;21.00;70.90
2363;DHT22;64265;51.664;7.626;2023-02-15T13:40:11;21.00;70.90
2363;DHT22;64265;51.664;7.626;2023-02-15T13:42:41;21.00;70.90
2363;DHT22;64265;51.664;7.626;2023-02-15T13:45:23;21.00;71.00
2363;DHT22;64265;51.664;7.626;2023-02-15T13:48:00;21.00;71.00
2363;DHT22;64265;51.664;7.626;2023-02-15T13:50:38;21.00;71.00
2363;DHT22;64265;51.664;7.626;2023-02-15T13:53:24;21.00;70.80
2363;DHT22;64265;51.664;7.626;2023-02-15T13:55:57;20.80;68.80
2363;DHT22;64265;51.664;7.626;2023-02-15T13:58:42;20.70;65.70
2363;DHT22;64265;51.664;7.626;2023-02-15T14:01:17;20.60;64.70
2363;DHT22;64265;51.664;7.626;2023-02-15T14:04:00;20.50;62.10
2363;DHT22;64265;51.664;7.626;2023-02-15T14:06:51;20.50;61.00
2363;DHT22;64265;51.664;7.626;2023-02-15T14:09:33;20.40;59.50
2363;DHT22;64265;51.664;7.626;2023-02-15T14:15:22;20.40;59.20
2363;DHT22;64265;51.664;7.626;2023-02-15T14:18:00;20.40;58.90
2363;DHT22;64265;51.664;7.626;2023-02-15T14:20:40;20.50;59.50
2363;DHT22;64265;51.664;7.626;2023-02-15T14:23:16;20.60;60.00
2363;DHT22;64265;51.664;7.626;2023-02-15T14:25:50;20.70;60.60
2363;DHT22;64265;51.664;7.626;2023-02-15T14:28:21;20.70;61.00
2363;DHT22;64265;51.664;7.626;2023-02-15T14:30:53;20.70;61.20
2363;DHT22;64265;51.664;7.626;2023-02-15T14:33:33;20.80;61.60
2363;DHT22;64265;51.664;7.626;2023-02-15T14:36:01;20.80;62.10
2363;DHT22;64265;51.664;7.626;2023-02-15T14:38:44;20.80;62.30
2363;DHT22;64265;51.664;7.626;2023-02-15T14:41:17;20.80;62.60
2363;DHT22;64265;51.664;7.626;2023-02-15T14:43:49;20.90;62.90
2363;DHT22;64265;51.664;7.626;2023-02-15T14:46:25;20.90;63.20
2363;DHT22;64265;51.664;7.626;2023-02-15T14:48:55;20.90;63.40
2363;DHT22;64265;51.664;7.626;2023-02-15T14:51:55;20.90;63.70
2363;DHT22;64265;51.664;7.626;2023-02-15T14:54:59;20.90;63.90
2363;DHT22;64265;51.664;7.626;2023-02-15T14:57:34;20.90;64.10
2363;DHT22;64265;51.664;7.626;2023-02-15T15:02:48;20.90;64.40
2363;DHT22;64265;51.664;7.626;2023-02-15T15:05:19;20.90;64.60
2363;DHT22;64265;51.664;7.626;2023-02-15T15:07:48;20.90;64.70
2363;DHT22;64265;51.664;7.626;2023-02-15T15:10:40;20.90;64.90
2363;DHT22;64265;51.664;7.626;2023-02-15T15:13:40;20.90;65.10
2363;DHT22;64265;51.664;7.626;2023-02-15T15:16:48;21.00;65.40
2363;DHT22;64265;51.664;7.626;2023-02-15T15:19:56;20.90;65.40
2363;DHT22;64265;51.664;7.626;2023-02-15T15:22:25;21.00;65.60
2363;DHT22;64265;51.664;7.626;2023-02-15T15:24:53;21.00;65.90
2363;DHT22;64265;51.664;7.626;2023-02-15T15:27:40;21.00;65.90
2363;DHT22;64265;51.664;7.626;2023-02-15T15:33:27;20.90;66.10
2363;DHT22;64265;51.664;7.626;2023-02-15T15:39:21;20.90;66.30
2363;DHT22;64265;51.664;7.626;2023-02-15T15:41:55;20.90;66.50
2363;DHT22;64265;51.664;7.626;2023-02-15T15:45:16;20.90;66.60
2363;DHT22;64265;51.664;7.626;2023-02-15T15:47:57;20.90;66.70
2363;DHT22;64265;51.664;7.626;2023-02-15T15:50:31;20.90;66.90
2363;DHT22;64265;51.664;7.626;2023-02-15T15:52:59;20.90;67.00
2363;DHT22;64265;51.664;7.626;2023-02-15T15:55:29;20.90;67.90
2363;DHT22;64265;51.664;7.626;2023-02-15T15:57:58;20.90;67.20
2363;DHT22;64265;51.664;7.626;2023-02-15T16:00:35;20.90;67.30
2363;DHT22;64265;51.664;7.626;2023-02-15T16:03:04;20.90;67.30
2363;DHT22;64265;51.664;7.626;2023-02-15T16:05:38;20.90;67.40
2363;DHT22;64265;51.664;7.626;2023-02-15T16:08:05;20.90;67.60
2363;DHT22;64265;51.664;7.626;2023-02-15T16:10:33;20.90;67.60
2363;DHT22;64265;51.664;7.626;2023-02-15T16:13:04;20.90;67.70
2363;DHT22;64265;51.664;7.626;2023-02-15T16:15:35;20.90;67.80
2363;DHT22;64265;51.664;7.626;2023-02-15T16:18:02;20.90;67.90
2363;DHT22;64265;51.664;7.626;2023-02-15T16:20:31;20.90;67.90
2363;DHT22;64265;51.664;7.626;2023-02-15T16:23:11;20.90;67.90
2363;DHT22;64265;51.664;7.626;2023-02-15T16:25:47;20.90;67.90
2363;DHT22;64265;51.664;7.626;2023-02-15T16:28:17;20.90;68.80
2363;DHT22;64265;51.664;7.626;2023-02-15T16:30:45;20.90;68.10
2363;DHT22;64265;51.664;7.626;2023-02-15T16:33:13;20.90;68.10